createdAt,value
2019-02-24T00:00:43.339Z,103023.46
2019-02-24T00:03:09.584Z,103024.97
2019-02-24T00:05:37.001Z,103021.84
2019-02-24T00:08:03.448Z,103015.19
2019-02-24T00:10:29.590Z,103010.56
2019-02-24T00:12:55.815Z,103012.85
2019-02-24T00:15:22.032Z,103008.47
2019-02-24T00:17:48.117Z,103013.33
2019-02-24T00:20:18.298Z,103007.84
2019-02-24T00:22:44.541Z,103004.64
2019-02-24T00:25:15.417Z,103007.13
2019-02-24T00:27:41.821Z,103006.34
2019-02-24T00:30:16.714Z,103007.60
2019-02-24T00:32:42.986Z,103011.02
2019-02-24T00:35:14.604Z,103007.03
2019-02-24T00:37:41.068Z,103014.22
2019-02-24T00:40:07.372Z,103016.09
2019-02-24T00:42:33.564Z,103015.00
2019-02-24T00:44:59.889Z,103018.36
2019-02-24T00:47:26.206Z,103012.31
2019-02-24T00:49:54.044Z,103012.27
2019-02-24T00:52:20.530Z,103015.31
2019-02-24T00:54:46.984Z,103011.72
2019-02-24T00:57:13.304Z,103008.60
2019-02-24T00:59:39.524Z,103010.75
2019-02-24T01:02:05.833Z,103016.25
2019-02-24T01:04:31.983Z,103017.02
2019-02-24T01:06:58.259Z,103015.41
2019-02-24T01:09:24.736Z,103023.37
2019-02-24T01:11:51.028Z,103025.67
2019-02-24T01:14:17.287Z,103026.13
2019-02-24T01:16:43.558Z,103025.52
2019-02-24T01:19:09.761Z,103026.69
2019-02-24T01:21:36.192Z,103025.63
2019-02-24T01:24:08.568Z,103020.42
2019-02-24T01:26:34.953Z,103024.75
2019-02-24T01:29:09.120Z,103022.17
2019-02-24T01:31:35.479Z,103020.32
2019-02-24T01:34:02.254Z,103014.68
2019-02-24T01:36:29.731Z,103016.46
2019-02-24T01:38:55.951Z,103009.02
2019-02-24T01:41:22.259Z,103004.56
2019-02-24T01:43:48.586Z,103003.27
2019-02-24T01:46:14.925Z,103002.03
2019-02-24T01:48:41.092Z,103001.02
2019-02-24T01:51:07.345Z,102991.69
2019-02-24T01:53:33.615Z,102989.95
2019-02-24T01:55:59.902Z,102987.55
2019-02-24T01:58:34.631Z,102984.88
2019-02-24T02:00:54.581Z,102985.14
2019-02-24T02:03:20.912Z,102989.89
2019-02-24T02:05:47.145Z,102982.73
2019-02-24T02:08:13.302Z,102981.83
2019-02-24T02:10:39.550Z,102977.02
2019-02-24T02:13:16.070Z,102976.02
2019-02-24T02:15:42.230Z,102980.11
2019-02-24T02:18:08.464Z,102978.81
2019-02-24T02:20:34.756Z,102994.27
2019-02-24T02:23:08.500Z,102990.95
2019-02-24T02:25:34.920Z,102987.59
2019-02-24T02:28:06.291Z,102993.02
2019-02-24T02:30:32.564Z,102978.77
2019-02-24T02:32:58.753Z,102978.65
2019-02-24T02:35:24.883Z,102977.77
2019-02-24T02:37:50.984Z,102970.72
2019-02-24T02:40:20.535Z,102965.85
2019-02-24T02:42:46.658Z,102949.56
2019-02-24T02:45:12.875Z,102952.68
2019-02-24T02:47:39.325Z,102958.95
2019-02-24T02:50:05.664Z,102956.15
2019-02-24T02:52:31.960Z,102958.95
2019-02-24T02:54:59.846Z,102967.86
2019-02-24T02:57:25.939Z,102968.09
2019-02-24T02:59:52.176Z,102966.14
2019-02-24T03:02:24.416Z,102970.98
2019-02-24T03:04:46.662Z,102968.53
2019-02-24T03:07:20.635Z,102962.49
2019-02-24T03:09:49.565Z,102968.53
2019-02-24T03:12:15.802Z,102966.70
2019-02-24T03:14:41.908Z,102963.27
2019-02-24T03:17:08.320Z,102970.16
2019-02-24T03:19:34.404Z,102967.77
2019-02-24T03:24:40.237Z,102971.09
2019-02-24T03:27:06.569Z,102973.90
2019-02-24T03:29:32.913Z,102970.34
2019-02-24T03:31:59.323Z,102968.40
2019-02-24T03:34:25.673Z,102971.92
2019-02-24T03:36:51.994Z,102978.75
2019-02-24T03:39:19.426Z,102980.55
2019-02-24T03:41:45.546Z,102980.10
2019-02-24T03:44:11.782Z,102974.82
2019-02-24T03:46:37.914Z,102968.75
2019-02-24T03:49:04.138Z,102963.39
2019-02-24T03:51:30.256Z,102970.34
2019-02-24T03:53:56.834Z,102979.33
2019-02-24T03:56:23.091Z,102986.13
2019-02-24T03:58:49.306Z,102989.77
2019-02-24T04:01:15.696Z,102988.09
2019-02-24T04:03:41.894Z,102997.13
2019-02-24T04:06:07.998Z,103002.82
2019-02-24T04:08:34.108Z,103007.95
2019-02-24T04:11:00.235Z,103006.47
2019-02-24T04:13:26.413Z,103010.06
2019-02-24T04:15:52.701Z,103001.84
2019-02-24T04:18:18.953Z,103000.84
2019-02-24T04:20:45.126Z,102999.86
2019-02-24T04:23:11.547Z,102986.34
2019-02-24T04:25:37.760Z,102990.51
2019-02-24T04:28:03.899Z,102979.94
2019-02-24T04:30:30.137Z,102970.75
2019-02-24T04:32:56.252Z,102966.35
2019-02-24T04:35:22.374Z,102971.38
2019-02-24T04:37:48.510Z,102977.19
2019-02-24T04:40:14.741Z,102970.26
2019-02-24T04:42:40.997Z,102967.61
2019-02-24T04:45:07.260Z,102973.81
2019-02-24T04:47:34.466Z,102963.94
2019-02-24T04:50:00.712Z,102971.10
2019-02-24T04:52:26.981Z,102973.44
2019-02-24T04:54:53.303Z,102974.63
2019-02-24T04:57:19.513Z,102985.07
2019-02-24T04:59:45.585Z,102980.95
2019-02-24T05:02:11.787Z,102978.98
2019-02-24T05:04:37.963Z,102980.55
2019-02-24T05:07:04.123Z,102981.41
2019-02-24T05:09:30.398Z,102987.05
2019-02-24T05:11:56.507Z,102987.50
2019-02-24T05:14:22.600Z,102986.21
2019-02-24T05:16:48.891Z,102988.67
2019-02-24T05:19:15.218Z,102982.48
2019-02-24T05:21:41.311Z,102980.95
2019-02-24T05:24:07.647Z,102977.88
2019-02-24T05:26:34.134Z,102981.53
2019-02-24T05:29:00.374Z,102980.23
2019-02-24T05:31:26.620Z,102985.13
2019-02-24T05:33:52.792Z,102994.70
2019-02-24T05:36:19.203Z,102992.37
2019-02-24T05:38:45.553Z,102998.38
2019-02-24T05:41:11.774Z,102998.16
2019-02-24T05:43:37.872Z,103000.12
2019-02-24T05:46:04.206Z,102999.39
2019-02-24T05:48:30.453Z,102996.74
2019-02-24T05:50:56.767Z,103005.63
2019-02-24T05:53:22.916Z,103005.20
2019-02-24T05:55:49.014Z,103006.46
2019-02-24T05:58:15.252Z,103011.23
2019-02-24T06:00:41.416Z,103018.47
2019-02-24T06:03:07.701Z,103023.06
2019-02-24T06:05:33.972Z,103021.98
2019-02-24T06:08:01.424Z,103016.48
2019-02-24T06:10:27.517Z,103030.70
2019-02-24T06:12:53.778Z,103029.62
2019-02-24T06:15:19.921Z,103039.66
2019-02-24T06:17:46.114Z,103037.75
2019-02-24T06:20:12.330Z,103039.66
2019-02-24T06:22:38.757Z,103040.28
2019-02-24T06:25:04.939Z,103040.81
2019-02-24T06:27:31.125Z,103043.37
2019-02-24T06:30:04.534Z,103044.66
2019-02-24T06:32:26.266Z,103041.46
2019-02-24T06:34:52.587Z,103045.61
2019-02-24T06:37:18.722Z,103043.03
2019-02-24T06:39:44.865Z,103034.35
2019-02-24T06:42:11.057Z,103036.27
2019-02-24T06:44:37.136Z,103033.78
2019-02-24T06:47:03.618Z,103036.70
2019-02-24T06:49:29.715Z,103039.59
2019-02-24T06:51:57.012Z,103035.91
2019-02-24T06:54:23.116Z,103039.00
2019-02-24T06:56:49.519Z,103035.59
2019-02-24T06:59:15.661Z,103039.23
2019-02-24T07:01:41.861Z,103036.15
2019-02-24T07:04:08.040Z,103041.50
2019-02-24T07:06:34.323Z,103041.95
2019-02-24T07:09:00.513Z,103034.48
2019-02-24T07:11:26.646Z,103030.74
2019-02-24T07:13:52.848Z,103030.22
2019-02-24T07:16:19.199Z,103022.18
2019-02-24T07:18:45.320Z,103020.79
2019-02-24T07:21:11.462Z,103023.66
2019-02-24T07:23:37.582Z,103016.81
2019-02-24T07:26:03.915Z,103019.97
2019-02-24T07:28:30.116Z,103023.41
2019-02-24T07:30:56.294Z,103021.01
2019-02-24T07:33:22.541Z,103021.48
2019-02-24T07:35:49.033Z,103015.30
2019-02-24T07:38:15.377Z,103018.64
2019-02-24T07:40:41.493Z,103019.37
2019-02-24T07:43:07.612Z,103022.39
2019-02-24T07:45:33.939Z,103023.58
2019-02-24T07:48:00.472Z,103017.06
2019-02-24T07:50:26.639Z,103023.91
2019-02-24T07:52:52.893Z,103025.59
2019-02-24T07:55:19.087Z,103027.34
2019-02-24T07:57:45.313Z,103035.45
2019-02-24T08:00:11.645Z,103042.26
2019-02-24T08:02:37.928Z,103051.44
2019-02-24T08:05:05.998Z,103051.70
2019-02-24T08:07:32.245Z,103051.41
2019-02-24T08:09:58.554Z,103056.99
2019-02-24T08:12:24.801Z,103052.98
2019-02-24T08:14:50.900Z,103056.78
2019-02-24T08:17:17.036Z,103060.10
2019-02-24T08:19:43.265Z,103054.98
2019-02-24T08:22:09.374Z,103058.72
2019-02-24T08:24:35.612Z,103050.09
2019-02-24T08:27:01.876Z,103053.58
2019-02-24T08:29:29.516Z,103049.22
2019-02-24T08:31:56.212Z,103055.88
2019-02-24T08:34:22.323Z,103054.61
2019-02-24T08:36:48.693Z,103044.68
2019-02-24T08:39:14.806Z,103054.05
2019-02-24T08:41:40.948Z,103055.23
2019-02-24T08:44:07.258Z,103061.05
2019-02-24T08:46:33.442Z,103065.66
2019-02-24T08:48:59.753Z,103062.30
2019-02-24T08:51:26.057Z,103062.81
2019-02-24T08:53:52.182Z,103063.52
2019-02-24T08:56:18.412Z,103060.64
2019-02-24T08:58:44.720Z,103066.72
2019-02-24T09:01:11.032Z,103066.41
2019-02-24T09:03:37.253Z,103071.10
2019-02-24T09:06:03.554Z,103069.24
2019-02-24T09:08:29.701Z,103070.27
2019-02-24T09:10:55.837Z,103069.97
2019-02-24T09:13:22.174Z,103069.34
2019-02-24T09:15:48.481Z,103068.61
2019-02-24T09:18:14.854Z,103061.31
2019-02-24T09:20:41.210Z,103063.27
2019-02-24T09:23:16.848Z,103053.20
2019-02-24T09:25:58.992Z,103059.95
2019-02-24T09:28:31.209Z,103060.64
2019-02-24T09:31:00.761Z,103053.14
2019-02-24T09:33:25.554Z,103054.41
2019-02-24T09:35:51.924Z,103063.76
2019-02-24T09:38:19.411Z,103060.80
2019-02-24T09:40:45.643Z,103060.19
2019-02-24T09:43:11.916Z,103060.19
2019-02-24T09:45:38.161Z,103067.21
2019-02-24T09:48:04.433Z,103075.95
2019-02-24T09:50:30.661Z,103081.14
2019-02-24T09:52:56.894Z,103078.78
2019-02-24T09:55:23.063Z,103071.70
2019-02-24T09:57:49.269Z,103065.72
2019-02-24T10:00:15.687Z,103074.74
2019-02-24T10:02:42.158Z,103065.53
2019-02-24T10:05:08.287Z,103072.62
2019-02-24T10:07:34.438Z,103071.13
2019-02-24T10:10:00.642Z,103073.73
2019-02-24T10:12:27.052Z,103074.14
2019-02-24T10:14:53.184Z,103060.75
2019-02-24T10:17:19.516Z,103058.83
2019-02-24T10:19:45.858Z,103069.34
2019-02-24T10:22:12.188Z,103076.06
2019-02-24T10:24:38.526Z,103074.74
2019-02-24T10:27:04.855Z,103076.86
2019-02-24T10:29:31.109Z,103073.92
2019-02-24T10:31:57.431Z,103070.92
2019-02-24T10:34:23.687Z,103070.02
2019-02-24T10:36:49.919Z,103066.36
2019-02-24T10:39:16.037Z,103069.30
2019-02-24T10:41:42.257Z,103066.13
2019-02-24T10:44:08.381Z,103061.75
2019-02-24T10:46:34.583Z,103064.02
2019-02-24T10:49:03.367Z,103058.17
2019-02-24T10:51:28.849Z,103064.25
2019-02-24T10:53:55.238Z,103067.48
2019-02-24T10:56:21.591Z,103066.30
2019-02-24T10:58:47.808Z,103067.16
2019-02-24T11:01:14.162Z,103059.64
2019-02-24T11:03:40.416Z,103062.07
2019-02-24T11:06:06.753Z,103062.07
2019-02-24T11:08:33.128Z,103052.52
2019-02-24T11:10:59.283Z,103056.22
2019-02-24T11:13:25.668Z,103045.40
2019-02-24T11:15:52.213Z,103046.08
2019-02-24T11:18:18.814Z,103047.37
2019-02-24T11:20:45.143Z,103042.41
2019-02-24T11:23:11.442Z,103042.41
2019-02-24T11:25:38.809Z,103023.69
2019-02-24T11:28:05.228Z,103023.69
2019-02-24T11:30:31.612Z,103032.83
2019-02-24T11:32:58.008Z,103032.98
2019-02-24T11:35:24.319Z,103030.01
2019-02-24T11:37:50.579Z,103026.06
2019-02-24T11:40:17.375Z,103028.80
2019-02-24T11:42:43.752Z,103030.95
2019-02-24T11:45:10.134Z,103035.52
2019-02-24T11:47:36.419Z,103038.23
2019-02-24T11:50:05.323Z,103027.16
2019-02-24T11:52:32.585Z,103027.39
2019-02-24T11:54:58.933Z,103032.73
2019-02-24T11:57:25.473Z,103023.77
2019-02-24T11:59:51.529Z,103035.70
2019-02-24T12:02:17.758Z,103036.97
2019-02-24T12:04:44.019Z,103030.07
2019-02-24T12:07:10.326Z,103026.59
2019-02-24T12:09:36.590Z,103022.79
2019-02-24T12:12:06.173Z,103023.86
2019-02-24T12:14:32.380Z,103033.30
2019-02-24T12:16:58.736Z,103035.92
2019-02-24T12:19:25.194Z,103029.78
2019-02-24T12:21:51.644Z,103033.78
2019-02-24T12:24:17.841Z,103034.98
2019-02-24T12:26:47.684Z,103032.97
2019-02-24T12:29:13.837Z,103030.33
2019-02-24T12:31:45.400Z,103028.66
2019-02-24T12:34:11.586Z,103023.95
2019-02-24T12:36:37.997Z,103022.05
2019-02-24T12:39:05.118Z,103028.92
2019-02-24T12:41:33.222Z,103029.10
2019-02-24T12:43:59.363Z,103023.63
2019-02-24T12:46:25.690Z,103015.00
2019-02-24T12:48:52.150Z,103002.92
2019-02-24T12:51:18.466Z,102999.96
2019-02-24T12:53:45.121Z,102994.80
2019-02-24T12:56:11.483Z,102999.13
2019-02-24T12:58:37.719Z,102995.27
2019-02-24T13:01:06.550Z,102995.38
2019-02-24T13:03:32.919Z,103002.62
2019-02-24T13:05:59.214Z,103002.07
2019-02-24T13:08:25.690Z,103005.55
2019-02-24T13:10:51.894Z,103003.39
2019-02-24T13:13:18.228Z,102992.52
2019-02-24T13:15:46.287Z,102990.03
2019-02-24T13:18:15.778Z,102994.98
2019-02-24T13:20:42.117Z,102989.26
2019-02-24T13:23:08.985Z,102984.69
2019-02-24T13:25:36.431Z,102980.09
2019-02-24T13:28:05.920Z,102967.09
2019-02-24T13:30:32.158Z,102966.34
2019-02-24T13:32:58.417Z,102967.23
2019-02-24T13:35:25.018Z,102964.71
2019-02-24T13:37:51.167Z,102965.61
2019-02-24T13:40:17.605Z,102969.62
2019-02-24T13:42:43.861Z,102975.42
2019-02-24T13:45:17.539Z,102975.34
2019-02-24T13:47:43.980Z,102971.73
2019-02-24T13:50:13.855Z,102970.48
2019-02-24T13:52:40.291Z,102966.84
2019-02-24T13:55:09.233Z,102957.99
2019-02-24T13:57:35.392Z,102952.36
2019-02-24T14:00:12.392Z,102959.39
2019-02-24T14:02:40.530Z,102957.80
2019-02-24T14:05:08.384Z,102956.45
2019-02-24T14:07:34.805Z,102959.78
2019-02-24T14:10:09.434Z,102965.23
2019-02-24T14:12:35.776Z,102962.98
2019-02-24T14:15:09.982Z,102957.98
2019-02-24T14:17:37.274Z,102962.14
2019-02-24T14:20:09.741Z,102970.53
2019-02-24T14:22:36.067Z,102965.09
2019-02-24T14:25:07.773Z,102961.89
2019-02-24T14:27:33.937Z,102951.95
2019-02-24T14:30:00.291Z,102952.53
2019-02-24T14:32:32.832Z,102954.11
2019-02-24T14:34:55.948Z,102958.72
2019-02-24T14:37:22.370Z,102955.33
2019-02-24T14:39:48.651Z,102950.44
2019-02-24T14:42:18.226Z,102949.98
2019-02-24T14:44:44.718Z,102958.45
2019-02-24T14:47:10.959Z,102961.21
2019-02-24T14:49:37.236Z,102965.76
2019-02-24T14:52:03.839Z,102963.40
2019-02-24T14:54:30.208Z,102960.94
2019-02-24T14:56:56.444Z,102954.27
2019-02-24T14:59:22.677Z,102955.35
2019-02-24T15:01:48.826Z,102957.80
2019-02-24T15:04:14.899Z,102966.25
2019-02-24T15:06:41.275Z,102962.98
2019-02-24T15:09:08.271Z,102967.83
2019-02-24T15:11:34.898Z,102960.75
2019-02-24T15:14:01.106Z,102968.16
2019-02-24T15:16:27.401Z,102966.73
2019-02-24T15:18:53.643Z,102966.86
2019-02-24T15:21:20.412Z,102975.05
2019-02-24T15:23:46.710Z,102978.06
2019-02-24T15:26:13.068Z,102977.25
2019-02-24T15:28:39.397Z,102976.02
2019-02-24T15:31:07.724Z,102973.97
2019-02-24T15:33:33.986Z,102973.86
2019-02-24T15:36:00.300Z,102978.81
2019-02-24T15:38:26.620Z,102982.25
2019-02-24T15:40:52.889Z,102976.21
2019-02-24T15:43:19.089Z,102976.09
2019-02-24T15:45:45.422Z,102968.72
2019-02-24T15:48:11.758Z,102958.59
2019-02-24T15:50:37.994Z,102956.34
2019-02-24T15:53:04.383Z,102957.25
2019-02-24T15:55:30.716Z,102952.84
2019-02-24T15:57:57.135Z,102957.01
2019-02-24T16:00:24.068Z,102953.03
2019-02-24T16:02:50.391Z,102954.02
2019-02-24T16:05:16.627Z,102960.27
2019-02-24T16:07:42.995Z,102968.16
2019-02-24T16:10:15.822Z,102969.74
2019-02-24T16:12:42.138Z,102963.42
2019-02-24T16:15:11.620Z,102960.16
2019-02-24T16:17:37.966Z,102961.97
2019-02-24T16:20:07.944Z,102957.03
2019-02-24T16:22:34.298Z,102960.09
2019-02-24T16:25:00.531Z,102961.03
2019-02-24T16:27:26.781Z,102957.27
2019-02-24T16:29:53.127Z,102962.47
2019-02-24T16:32:19.301Z,102963.50
2019-02-24T16:34:46.562Z,102971.30
2019-02-24T16:37:12.950Z,102964.22
2019-02-24T16:39:39.216Z,102967.17
2019-02-24T16:42:06.717Z,102963.24
2019-02-24T16:44:33.092Z,102974.81
2019-02-24T16:46:59.630Z,102975.91
2019-02-24T16:49:25.743Z,102965.16
2019-02-24T16:51:51.982Z,102966.52
2019-02-24T16:54:18.351Z,102966.00
2019-02-24T16:56:44.587Z,102963.80
2019-02-24T16:59:10.932Z,102965.86
2019-02-24T17:01:37.063Z,102969.48
2019-02-24T17:04:03.543Z,102978.73
2019-02-24T17:06:29.824Z,102979.27
2019-02-24T17:09:02.543Z,102981.63
2019-02-24T17:11:24.265Z,102981.30
2019-02-24T17:13:50.857Z,102981.28
2019-02-24T17:16:17.141Z,102983.83
2019-02-24T17:18:43.559Z,102983.83
2019-02-24T17:21:09.801Z,102997.97
2019-02-24T17:23:36.128Z,102998.48
2019-02-24T17:26:02.693Z,102997.95
2019-02-24T17:28:28.968Z,103004.77
2019-02-24T17:30:55.275Z,103023.05
2019-02-24T17:33:29.796Z,103028.86
2019-02-24T17:35:49.962Z,103028.16
2019-02-24T17:38:16.341Z,103027.06
2019-02-24T17:40:42.723Z,103024.80
2019-02-24T17:43:08.964Z,103026.25
2019-02-24T17:45:35.246Z,103030.27
2019-02-24T17:48:01.581Z,103025.55
2019-02-24T17:50:28.151Z,103023.27
2019-02-24T17:52:54.593Z,103025.98
2019-02-24T17:55:21.152Z,103033.19
2019-02-24T17:57:47.567Z,103034.08
2019-02-24T18:00:25.950Z,103025.86
2019-02-24T18:02:52.273Z,103027.28
2019-02-24T18:05:18.638Z,103031.78
2019-02-24T18:07:45.123Z,103033.26
2019-02-24T18:10:11.549Z,103029.45
2019-02-24T18:12:37.799Z,103029.92
2019-02-24T18:15:08.490Z,103018.91
2019-02-24T18:17:34.849Z,103024.85
2019-02-24T18:20:01.311Z,103025.52
2019-02-24T18:22:27.658Z,103024.50
2019-02-24T18:25:02.716Z,103023.44
2019-02-24T18:27:23.834Z,103015.17
2019-02-24T18:29:51.148Z,103018.84
2019-02-24T18:32:17.622Z,103021.61
2019-02-24T18:34:44.164Z,103026.41
2019-02-24T18:37:10.571Z,103016.95
2019-02-24T18:39:36.907Z,103026.31
2019-02-24T18:42:05.010Z,103030.55
2019-02-24T18:44:31.386Z,103031.92
2019-02-24T18:46:57.605Z,103022.33
2019-02-24T18:49:25.771Z,103026.99
2019-02-24T18:51:52.076Z,103028.45
2019-02-24T18:54:18.430Z,103028.53
2019-02-24T18:56:44.747Z,103017.30
2019-02-24T18:59:11.105Z,103021.25
2019-02-24T19:01:37.336Z,103013.09
2019-02-24T19:04:03.680Z,103017.09
2019-02-24T19:06:38.768Z,103011.84
2019-02-24T19:08:58.278Z,103011.15
2019-02-24T19:11:24.646Z,103008.67
2019-02-24T19:13:50.926Z,102998.17
2019-02-24T19:16:17.146Z,103000.03
2019-02-24T19:18:44.812Z,103002.87
2019-02-24T19:21:12.285Z,103005.47
2019-02-24T19:23:38.573Z,103005.00
2019-02-24T19:26:04.899Z,103002.86
2019-02-24T19:28:32.248Z,103002.25
2019-02-24T19:30:58.559Z,102988.80
2019-02-24T19:33:24.895Z,102987.90
2019-02-24T19:35:51.431Z,102983.48
2019-02-24T19:38:17.646Z,102988.48
2019-02-24T19:40:44.108Z,102984.88
2019-02-24T19:43:10.396Z,102979.48
2019-02-24T19:45:36.896Z,102981.48
2019-02-24T19:48:03.180Z,102978.28
2019-02-24T19:50:29.436Z,102979.28
2019-02-24T19:52:55.710Z,102983.46
2019-02-24T19:55:21.935Z,102983.80
2019-02-24T19:57:48.396Z,102987.20
2019-02-24T20:00:22.730Z,102992.13
2019-02-24T20:02:49.056Z,102996.83
2019-02-24T20:05:15.460Z,102994.73
2019-02-24T20:07:41.777Z,103010.66
2019-02-24T20:10:10.745Z,103009.11
2019-02-24T20:12:37.057Z,103009.06
2019-02-24T20:15:07.086Z,103006.94
2019-02-24T20:17:33.497Z,103011.65
2019-02-24T20:19:59.819Z,103005.52
2019-02-24T20:22:26.098Z,103009.80
2019-02-24T20:24:52.426Z,103002.81
2019-02-24T20:27:18.741Z,103009.08
2019-02-24T20:29:44.880Z,103011.96
2019-02-24T20:32:11.338Z,103010.72
2019-02-24T20:34:37.460Z,103020.94
2019-02-24T20:37:04.008Z,103022.11
2019-02-24T20:39:30.274Z,103026.61
2019-02-24T20:41:56.567Z,103030.88
2019-02-24T20:44:22.760Z,103035.69
2019-02-24T20:46:49.052Z,103035.95
2019-02-24T20:49:15.388Z,103044.27
2019-02-24T20:51:42.722Z,103040.84
2019-02-24T20:54:18.289Z,103054.73
2019-02-24T20:56:44.800Z,103059.80
2019-02-24T20:59:19.272Z,103053.76
2019-02-24T21:01:45.838Z,103053.26
2019-02-24T21:04:17.830Z,103052.78
2019-02-24T21:06:44.102Z,103059.38
2019-02-24T21:09:16.803Z,103056.06
2019-02-24T21:11:43.045Z,103053.27
2019-02-24T21:14:09.429Z,103051.62
2019-02-24T21:16:35.754Z,103050.40
2019-02-24T21:19:10.291Z,103049.36
2019-02-24T21:21:36.631Z,103051.94
2019-02-24T21:24:05.094Z,103046.78
2019-02-24T21:26:31.605Z,103052.58
2019-02-24T21:28:58.055Z,103060.17
2019-02-24T21:31:24.343Z,103061.69
2019-02-24T21:36:29.479Z,103061.51
2019-02-24T21:38:55.830Z,103058.94
2019-02-24T21:41:29.895Z,103067.98
2019-02-24T21:43:57.285Z,103057.94
2019-02-24T21:46:23.548Z,103055.88
2019-02-24T21:48:57.241Z,103055.36
2019-02-24T21:51:23.461Z,103063.39
2019-02-24T21:53:51.863Z,103070.10
2019-02-24T21:56:21.381Z,103069.31
2019-02-24T21:58:50.597Z,103068.81
2019-02-24T22:01:17.305Z,103065.69
2019-02-24T22:03:43.640Z,103070.61
2019-02-24T22:06:09.852Z,103066.48
2019-02-24T22:08:36.096Z,103072.69
2019-02-24T22:11:05.299Z,103070.34
2019-02-24T22:13:31.565Z,103071.22
2019-02-24T22:15:57.817Z,103076.78
2019-02-24T22:18:24.240Z,103077.03
2019-02-24T22:20:50.370Z,103073.41
2019-02-24T22:23:16.751Z,103068.39
2019-02-24T22:25:43.077Z,103079.98
2019-02-24T22:28:09.379Z,103076.53
2019-02-24T22:30:35.734Z,103079.11
2019-02-24T22:33:02.056Z,103080.53
2019-02-24T22:35:28.407Z,103085.19
2019-02-24T22:37:54.696Z,103091.64
2019-02-24T22:40:21.015Z,103089.36
2019-02-24T22:42:47.136Z,103089.12
2019-02-24T22:45:17.026Z,103089.34
2019-02-24T22:47:44.045Z,103086.26
2019-02-24T22:50:12.177Z,103094.16
2019-02-24T22:52:38.414Z,103093.63
2019-02-24T22:55:17.699Z,103096.04
2019-02-24T22:57:44.017Z,103099.27
2019-02-24T23:00:51.335Z,103090.13
2019-02-24T23:03:21.185Z,103093.41
2019-02-24T23:05:47.757Z,103103.92
2019-02-24T23:08:15.444Z,103098.80
2019-02-24T23:10:41.926Z,103094.98
2019-02-24T23:13:08.369Z,103096.31
2019-02-24T23:15:34.787Z,103095.60
2019-02-24T23:18:04.673Z,103099.54
2019-02-24T23:20:31.405Z,103099.06
2019-02-24T23:22:57.886Z,103099.35
2019-02-24T23:25:24.053Z,103091.66
2019-02-24T23:27:50.462Z,103094.58
2019-02-24T23:30:16.817Z,103087.63
2019-02-24T23:32:43.243Z,103083.64
2019-02-24T23:35:16.574Z,103077.34
2019-02-24T23:37:42.826Z,103081.13
2019-02-24T23:40:09.181Z,103072.79
2019-02-24T23:42:35.411Z,103070.09
2019-02-24T23:45:13.568Z,103070.33
2019-02-24T23:47:39.772Z,103073.65
2019-02-24T23:50:08.058Z,103079.73
2019-02-24T23:52:34.151Z,103078.98
2019-02-24T23:55:00.312Z,103081.56
2019-02-24T23:57:27.618Z,103076.73
2019-02-24T23:59:53.754Z,103082.28
